createdAt,value
2022-10-24T00:01:17.716Z,76546.91
2022-10-24T00:03:45.083Z,76570.75
2022-10-24T00:06:12.976Z,76558.84
2022-10-24T00:08:41.493Z,76568.78
2022-10-24T00:11:14.063Z,76560.81
2022-10-24T00:13:41.736Z,76548.91
2022-10-24T00:16:08.735Z,76574.72
2022-10-24T00:18:35.352Z,76556.84
2022-10-24T00:21:01.860Z,76550.88
2022-10-24T00:23:28.370Z,76552.88
2022-10-24T00:25:54.848Z,76554.84
2022-10-24T00:28:21.416Z,76570.75
2022-10-24T00:30:51.963Z,76572.75
2022-10-24T00:33:18.706Z,76564.78
2022-10-24T00:35:45.190Z,76566.78
2022-10-24T00:38:11.688Z,76562.81
2022-10-24T00:40:38.427Z,76554.84
2022-10-24T00:43:05.064Z,76568.78
2022-10-24T00:45:34.679Z,76566.78
2022-10-24T00:48:01.264Z,76542.94
2022-10-24T00:50:28.728Z,76544.94
2022-10-24T00:52:55.427Z,76562.81
2022-10-24T00:55:22.014Z,76578.72
2022-10-24T00:57:53.301Z,76572.75
2022-10-24T01:00:24.698Z,76590.63
2022-10-24T01:02:51.508Z,76576.72
2022-10-24T01:05:19.700Z,76584.66
2022-10-24T01:07:58.550Z,76586.66
2022-10-24T01:10:50.601Z,76562.81
2022-10-24T01:13:30.808Z,76564.78
2022-10-24T01:16:02.998Z,76586.66
2022-10-24T01:18:37.350Z,76594.59
2022-10-24T01:21:24.952Z,76586.66
2022-10-24T01:24:10.222Z,76608.50
2022-10-24T01:26:58.255Z,76618.44
2022-10-24T01:29:30.909Z,76610.50
2022-10-24T01:32:06.184Z,76618.44
2022-10-24T01:34:42.328Z,76632.34
2022-10-24T01:37:17.758Z,76626.41
2022-10-24T01:39:48.369Z,76602.56
2022-10-24T01:42:19.516Z,76606.53
2022-10-24T01:44:51.263Z,76612.50
2022-10-24T01:47:28.093Z,76616.47
2022-10-24T01:50:14.815Z,76612.50
2022-10-24T01:52:44.267Z,76586.66
2022-10-24T01:55:11.601Z,76602.56
2022-10-24T01:57:39.608Z,76604.53
2022-10-24T02:00:09.819Z,76606.53
2022-10-24T02:02:49.734Z,76604.53
2022-10-24T02:05:28.893Z,76596.59
2022-10-24T02:08:01.589Z,76570.75
2022-10-24T02:10:48.622Z,76600.56
2022-10-24T02:13:22.044Z,76584.66
2022-10-24T02:15:53.600Z,76608.50
2022-10-24T02:18:20.692Z,76624.41
2022-10-24T02:21:05.828Z,76646.28
2022-10-24T02:24:11.388Z,76622.44
2022-10-24T02:27:03.545Z,76640.31
2022-10-24T02:29:34.094Z,76662.16
2022-10-24T02:32:06.611Z,76660.19
2022-10-24T02:34:34.409Z,76652.22
2022-10-24T02:37:02.987Z,76670.13
2022-10-24T02:39:31.049Z,76678.06
2022-10-24T02:41:59.221Z,76676.06
2022-10-24T02:44:28.189Z,76674.09
2022-10-24T02:46:58.354Z,76691.97
2022-10-24T02:49:25.074Z,76680.06
2022-10-24T02:51:53.066Z,76691.97
2022-10-24T02:54:20.137Z,76688.00
2022-10-24T02:56:51.448Z,76660.19
2022-10-24T02:59:17.985Z,76676.06
2022-10-24T03:01:44.651Z,76650.25
2022-10-24T03:04:11.304Z,76656.22
2022-10-24T03:06:37.886Z,76678.06
2022-10-24T03:09:04.401Z,76686.00
2022-10-24T03:11:30.911Z,76695.94
2022-10-24T03:13:57.397Z,76699.94
2022-10-24T03:16:25.023Z,76697.94
2022-10-24T03:18:51.596Z,76695.94
2022-10-24T03:21:18.015Z,76688.00
2022-10-24T03:23:44.461Z,76688.00
2022-10-24T03:26:10.967Z,76678.06
2022-10-24T03:28:37.532Z,76676.06
2022-10-24T03:31:04.599Z,76678.06
2022-10-24T03:33:31.147Z,76678.06
2022-10-24T03:35:57.659Z,76680.06
2022-10-24T03:38:24.581Z,76668.13
2022-10-24T03:40:51.440Z,76682.03
2022-10-24T03:43:18.583Z,76693.97
2022-10-24T03:45:45.161Z,76701.91
2022-10-24T03:48:11.694Z,76691.97
2022-10-24T03:50:38.415Z,76699.94
2022-10-24T03:53:05.471Z,76693.97
2022-10-24T03:55:32.433Z,76682.03
2022-10-24T03:57:59.264Z,76699.94
2022-10-24T04:00:28.275Z,76682.03
2022-10-24T04:02:55.508Z,76691.97
2022-10-24T04:05:22.020Z,76701.91
2022-10-24T04:07:48.500Z,76705.88
2022-10-24T04:10:15.052Z,76719.81
2022-10-24T04:12:41.672Z,76705.88
2022-10-24T04:15:08.420Z,76721.78
2022-10-24T04:17:34.936Z,76699.94
2022-10-24T04:20:01.516Z,76715.81
2022-10-24T04:22:28.107Z,76723.78
2022-10-24T04:24:54.585Z,76719.81
2022-10-24T04:27:21.039Z,76713.84
2022-10-24T04:29:48.055Z,76719.81
2022-10-24T04:32:14.546Z,76709.88
2022-10-24T04:34:41.040Z,76723.78
2022-10-24T04:37:07.668Z,76695.94
2022-10-24T04:39:34.199Z,76721.78
2022-10-24T04:42:00.695Z,76705.88
2022-10-24T04:44:27.649Z,76717.81
2022-10-24T04:46:54.117Z,76717.81
2022-10-24T04:49:20.745Z,76723.78
2022-10-24T04:51:47.229Z,76711.84
2022-10-24T04:54:13.964Z,76697.94
2022-10-24T04:56:40.488Z,76690.00
2022-10-24T04:59:07.060Z,76711.84
2022-10-24T05:01:33.655Z,76727.75
2022-10-24T05:06:31.654Z,76763.53
2022-10-24T05:08:58.164Z,76761.53
2022-10-24T05:11:24.654Z,76769.47
2022-10-24T05:13:51.205Z,76761.53
2022-10-24T05:16:17.747Z,76761.53
2022-10-24T05:18:44.246Z,76749.59
2022-10-24T05:21:10.745Z,76721.78
2022-10-24T05:23:37.300Z,76733.72
2022-10-24T05:26:03.963Z,76731.72
2022-10-24T05:28:30.714Z,76727.75
2022-10-24T05:30:57.207Z,76727.75
2022-10-24T05:33:23.888Z,76737.69
2022-10-24T05:35:51.566Z,76735.69
2022-10-24T05:38:18.322Z,76737.69
2022-10-24T05:40:47.751Z,76733.72
2022-10-24T05:43:14.327Z,76727.75
2022-10-24T05:45:40.923Z,76735.69
2022-10-24T05:48:07.721Z,76733.72
2022-10-24T05:50:34.948Z,76739.66
2022-10-24T05:53:02.138Z,76741.66
2022-10-24T05:55:28.875Z,76729.75
2022-10-24T05:57:55.352Z,76703.91
2022-10-24T06:00:21.922Z,76709.88
2022-10-24T06:02:48.617Z,76709.88
2022-10-24T06:05:15.585Z,76703.91
2022-10-24T06:07:42.442Z,76717.81
2022-10-24T06:10:10.693Z,76699.94
2022-10-24T06:12:37.264Z,76682.03
2022-10-24T06:15:06.956Z,76713.84
2022-10-24T06:17:33.630Z,76701.91
2022-10-24T06:20:00.152Z,76703.91
2022-10-24T06:22:29.637Z,76682.03
2022-10-24T06:24:57.112Z,76674.09
2022-10-24T06:27:23.780Z,76678.06
2022-10-24T06:29:50.278Z,76678.06
2022-10-24T06:32:16.732Z,76682.03
2022-10-24T06:34:43.244Z,76674.09
2022-10-24T06:37:09.766Z,76691.97
2022-10-24T06:39:36.219Z,76678.06
2022-10-24T06:42:02.683Z,76688.00
2022-10-24T06:44:29.114Z,76686.00
2022-10-24T06:46:55.580Z,76672.09
2022-10-24T06:49:22.168Z,76676.06
2022-10-24T06:51:49.015Z,76652.22
2022-10-24T06:54:16.109Z,76672.09
2022-10-24T06:56:42.617Z,76652.22
2022-10-24T06:59:15.739Z,76658.19
2022-10-24T07:01:43.151Z,76646.28
2022-10-24T07:04:10.243Z,76634.34
2022-10-24T07:06:37.404Z,76628.38
2022-10-24T07:09:05.294Z,76634.34
2022-10-24T07:11:32.403Z,76608.50
2022-10-24T07:14:00.892Z,76588.63
2022-10-24T07:16:28.825Z,76592.63
2022-10-24T07:18:55.663Z,76574.72
2022-10-24T07:21:28.116Z,76582.69
2022-10-24T07:23:55.490Z,76574.72
2022-10-24T07:26:23.549Z,76574.72
2022-10-24T07:28:54.714Z,76562.81
2022-10-24T07:31:23.377Z,76548.91
2022-10-24T07:33:50.636Z,76538.97
2022-10-24T07:36:19.867Z,76517.09
2022-10-24T07:38:47.611Z,76517.09
2022-10-24T07:41:14.187Z,76513.13
2022-10-24T07:43:41.107Z,76505.19
2022-10-24T07:46:10.269Z,76481.34
2022-10-24T07:48:38.028Z,76471.41
2022-10-24T07:51:09.851Z,76459.47
2022-10-24T07:53:36.841Z,76457.50
2022-10-24T07:56:08.483Z,76437.63
2022-10-24T07:58:38.628Z,76413.78
2022-10-24T08:01:17.716Z,76405.81
2022-10-24T08:03:44.508Z,76385.97
2022-10-24T08:06:14.242Z,76383.97
2022-10-24T08:08:41.227Z,76352.19
2022-10-24T08:11:10.018Z,76332.31
2022-10-24T08:13:36.823Z,76318.41
2022-10-24T08:16:06.880Z,76318.41
2022-10-24T08:18:38.611Z,76292.56
2022-10-24T08:21:09.143Z,76290.56
2022-10-24T08:23:37.726Z,76268.72
2022-10-24T08:26:05.999Z,76278.66
2022-10-24T08:28:32.612Z,76270.72
2022-10-24T08:31:01.466Z,76284.63
2022-10-24T08:33:28.155Z,76290.56
2022-10-24T08:35:58.328Z,76280.66
2022-10-24T08:38:24.839Z,76256.78
2022-10-24T08:40:51.381Z,76264.75
2022-10-24T08:43:19.467Z,76260.78
2022-10-24T08:45:51.901Z,76260.78
2022-10-24T08:48:27.242Z,76258.78
2022-10-24T08:51:02.711Z,76256.78
2022-10-24T08:53:32.888Z,76238.91
2022-10-24T08:56:01.438Z,76228.97
2022-10-24T08:58:45.043Z,76205.13
2022-10-24T09:01:31.606Z,76195.19
2022-10-24T09:04:03.542Z,76181.28
2022-10-24T09:06:32.394Z,76167.38
2022-10-24T09:09:09.475Z,76149.50
2022-10-24T09:12:08.943Z,76137.59
2022-10-24T09:14:38.517Z,76139.56
2022-10-24T09:19:57.010Z,76099.81
2022-10-24T09:22:26.816Z,76109.75
2022-10-24T09:25:04.181Z,76085.91
2022-10-24T09:27:38.776Z,76076.00
2022-10-24T09:30:07.755Z,76066.06
2022-10-24T09:32:35.912Z,76052.16
2022-10-24T09:35:16.232Z,76030.28
2022-10-24T09:37:50.049Z,76022.34
2022-10-24T09:40:25.880Z,76024.31
2022-10-24T09:43:16.528Z,75996.50
2022-10-24T09:45:49.151Z,75986.56
2022-10-24T09:48:41.880Z,75966.72
2022-10-24T09:51:09.000Z,75966.72
2022-10-24T09:53:39.545Z,75944.84
2022-10-24T09:56:15.756Z,75948.81
2022-10-24T09:58:43.086Z,75934.91
2022-10-24T10:01:22.930Z,75938.91
2022-10-24T10:04:09.461Z,75934.91
2022-10-24T10:06:44.798Z,75925.00
2022-10-24T10:09:26.561Z,75921.00
2022-10-24T10:12:05.041Z,75915.06
2022-10-24T10:14:32.577Z,75905.13
2022-10-24T10:17:05.661Z,75899.16
2022-10-24T10:19:36.807Z,75909.09
2022-10-24T10:22:05.612Z,75905.13
2022-10-24T10:24:35.089Z,75911.06
2022-10-24T10:27:02.931Z,75909.09
2022-10-24T10:29:29.435Z,75926.97
2022-10-24T10:32:16.128Z,75915.06
2022-10-24T10:34:47.073Z,75919.03
2022-10-24T10:37:32.315Z,75913.06
2022-10-24T10:40:18.626Z,75911.06
2022-10-24T10:42:54.424Z,75915.06
2022-10-24T10:45:33.253Z,75909.09
2022-10-24T10:48:37.722Z,75905.13
2022-10-24T10:51:31.535Z,75901.16
2022-10-24T10:54:18.215Z,75895.19
2022-10-24T10:57:00.375Z,75895.19
2022-10-24T10:59:39.552Z,75891.22
2022-10-24T11:02:34.675Z,75881.28
2022-10-24T11:05:26.119Z,75873.31
2022-10-24T11:08:19.222Z,75881.28
2022-10-24T11:10:58.739Z,75877.31
2022-10-24T11:13:34.238Z,75885.25
2022-10-24T11:16:05.840Z,75877.31
2022-10-24T11:18:40.172Z,75879.28
2022-10-24T11:21:09.462Z,75891.22
2022-10-24T11:26:24.017Z,75879.28
2022-10-24T11:29:11.316Z,75885.25
2022-10-24T11:31:42.041Z,75885.25
2022-10-24T11:34:15.079Z,75899.16
2022-10-24T11:37:03.660Z,75917.03
2022-10-24T11:39:36.591Z,75911.06
2022-10-24T11:42:24.648Z,75911.06
2022-10-24T11:45:06.450Z,75921.00
2022-10-24T11:47:47.996Z,75930.94
2022-10-24T11:50:45.004Z,75928.97
2022-10-24T11:53:28.852Z,75923.00
2022-10-24T11:56:12.106Z,75921.00
2022-10-24T11:58:54.046Z,75928.97
2022-10-24T12:01:36.367Z,75930.94
2022-10-24T12:04:14.605Z,75926.97
2022-10-24T12:07:01.312Z,75921.00
2022-10-24T12:09:49.567Z,75915.06
2022-10-24T12:12:54.806Z,75919.03
2022-10-24T12:15:24.262Z,75915.06
2022-10-24T12:18:28.545Z,75921.00
2022-10-24T12:20:58.442Z,75911.06
2022-10-24T12:23:29.812Z,75909.09
2022-10-24T12:26:14.572Z,75909.09
2022-10-24T12:28:41.807Z,75911.06
2022-10-24T12:31:23.840Z,75909.09
2022-10-24T12:34:23.024Z,75909.09
2022-10-24T12:37:14.272Z,75899.16
2022-10-24T12:39:47.142Z,75891.22
2022-10-24T12:42:37.172Z,75891.22
2022-10-24T12:45:12.777Z,75883.25
2022-10-24T12:48:20.747Z,75883.25
2022-10-24T12:50:54.514Z,75871.34
2022-10-24T12:54:05.543Z,75849.50
2022-10-24T12:56:33.759Z,75831.59
2022-10-24T12:59:18.322Z,75839.56
2022-10-24T13:01:46.539Z,75841.53
2022-10-24T13:04:32.053Z,75843.53
2022-10-24T13:07:02.395Z,75853.47
2022-10-24T13:09:36.095Z,75857.44
2022-10-24T13:12:40.437Z,75853.47
2022-10-24T13:15:12.955Z,75865.38
2022-10-24T13:17:46.422Z,75845.50
2022-10-24T13:20:20.231Z,75837.56
2022-10-24T13:22:48.542Z,75839.56
2022-10-24T13:25:21.439Z,75845.50
2022-10-24T13:28:19.868Z,75847.50
2022-10-24T13:30:49.655Z,75843.53
2022-10-24T13:33:35.133Z,75865.38
2022-10-24T13:36:17.795Z,75859.41
2022-10-24T13:38:49.802Z,75879.28
2022-10-24T13:41:45.455Z,75881.28
2022-10-24T13:44:11.826Z,75879.28
2022-10-24T13:46:54.365Z,75863.41
2022-10-24T13:49:37.968Z,75871.34
2022-10-24T13:52:16.171Z,75847.50
2022-10-24T13:54:46.489Z,75849.50
2022-10-24T13:57:34.017Z,75857.44
2022-10-24T14:00:05.420Z,75857.44
2022-10-24T14:02:35.287Z,75861.41
2022-10-24T14:05:02.553Z,75863.41
2022-10-24T14:07:33.685Z,75879.28
2022-10-24T14:10:07.284Z,75873.31
2022-10-24T14:12:36.291Z,75873.31
2022-10-24T14:15:04.067Z,75887.22
2022-10-24T14:17:34.452Z,75899.16
2022-10-24T14:20:20.968Z,75903.13
2022-10-24T14:22:48.014Z,75915.06
2022-10-24T14:25:33.034Z,75921.00
2022-10-24T14:28:02.530Z,75919.03
2022-10-24T14:30:34.328Z,75915.06
2022-10-24T14:33:20.344Z,75915.06
2022-10-24T14:35:49.021Z,75919.03
2022-10-24T14:38:17.541Z,75919.03
2022-10-24T14:40:46.147Z,75915.06
2022-10-24T14:46:26.106Z,75934.91
2022-10-24T14:48:52.834Z,75950.81
2022-10-24T14:51:38.660Z,75954.78
2022-10-24T14:54:17.568Z,75966.72
2022-10-24T14:56:44.665Z,75966.72
2022-10-24T14:59:33.133Z,75950.81
2022-10-24T15:02:06.772Z,75974.66
2022-10-24T15:04:43.123Z,75988.56
2022-10-24T15:07:31.411Z,75972.66
2022-10-24T15:09:59.646Z,75986.56
2022-10-24T15:12:39.789Z,75986.56
2022-10-24T15:15:33.976Z,76006.44
2022-10-24T15:18:20.539Z,76002.47
2022-10-24T15:20:49.284Z,76022.34
2022-10-24T15:23:37.604Z,76010.41
2022-10-24T15:26:16.805Z,76036.25
2022-10-24T15:28:54.054Z,76046.19
2022-10-24T15:31:21.554Z,76056.13
2022-10-24T15:33:48.983Z,76070.03
2022-10-24T15:36:29.579Z,76074.00
2022-10-24T15:39:04.612Z,76083.94
2022-10-24T15:41:31.480Z,76095.84
2022-10-24T15:43:58.383Z,76119.69
2022-10-24T15:46:26.254Z,76117.72
2022-10-24T15:48:52.761Z,76137.59
2022-10-24T15:51:22.120Z,76135.59
2022-10-24T15:53:50.384Z,76155.47
2022-10-24T15:56:17.272Z,76155.47
2022-10-24T15:58:44.163Z,76171.34
2022-10-24T16:01:29.087Z,76181.28
2022-10-24T16:03:56.481Z,76181.28
2022-10-24T16:06:23.142Z,76185.25
2022-10-24T16:08:55.964Z,76203.16
2022-10-24T16:11:22.976Z,76225.00
2022-10-24T16:13:49.431Z,76234.94
2022-10-24T16:16:15.909Z,76248.84
2022-10-24T16:18:42.353Z,76268.72
2022-10-24T16:21:16.397Z,76276.66
2022-10-24T16:23:42.982Z,76278.66
2022-10-24T16:26:09.515Z,76278.66
2022-10-24T16:28:35.960Z,76284.63
2022-10-24T16:31:04.108Z,76288.59
2022-10-24T16:33:31.030Z,76272.69
2022-10-24T16:35:57.532Z,76280.66
2022-10-24T16:38:25.060Z,76286.59
2022-10-24T16:40:51.584Z,76292.56
2022-10-24T16:43:19.722Z,76294.56
2022-10-24T16:45:57.237Z,76296.53
2022-10-24T16:48:24.064Z,76276.66
2022-10-24T16:50:50.539Z,76280.66
2022-10-24T16:53:18.382Z,76292.56
2022-10-24T16:55:54.526Z,76284.63
2022-10-24T16:58:22.287Z,76290.56
2022-10-24T17:00:48.925Z,76302.50
2022-10-24T17:03:15.494Z,76300.50
2022-10-24T17:05:45.449Z,76310.44
2022-10-24T17:08:12.107Z,76312.44
2022-10-24T17:10:38.824Z,76294.56
2022-10-24T17:13:07.586Z,76288.59
2022-10-24T17:15:34.543Z,76292.56
2022-10-24T17:18:01.003Z,76280.66
2022-10-24T17:20:27.582Z,76294.56
2022-10-24T17:22:54.414Z,76292.56
2022-10-24T17:25:24.329Z,76298.53
2022-10-24T17:27:51.533Z,76308.47
2022-10-24T17:30:21.459Z,76300.50
2022-10-24T17:32:48.417Z,76294.56
2022-10-24T17:35:17.934Z,76312.44
2022-10-24T17:37:52.669Z,76310.44
2022-10-24T17:40:22.539Z,76302.50
2022-10-24T17:42:49.975Z,76312.44
2022-10-24T17:45:18.880Z,76284.63
2022-10-24T17:50:13.708Z,76288.59
2022-10-24T17:52:42.297Z,76308.47
2022-10-24T17:58:11.764Z,76308.47
2022-10-24T18:00:38.378Z,76308.47
2022-10-24T18:03:05.466Z,76310.44
2022-10-24T18:05:37.433Z,76316.41
2022-10-24T18:08:05.446Z,76322.38
2022-10-24T18:10:32.281Z,76340.25
2022-10-24T18:15:25.171Z,76318.41
2022-10-24T18:17:51.650Z,76296.53
2022-10-24T18:20:19.543Z,76306.47
2022-10-24T18:22:46.345Z,76304.50
2022-10-24T18:25:18.747Z,76304.50
2022-10-24T18:27:48.537Z,76308.47
2022-10-24T18:30:15.238Z,76304.50
2022-10-24T18:32:41.707Z,76312.44
2022-10-24T18:35:08.791Z,76324.34
2022-10-24T18:37:35.839Z,76316.41
2022-10-24T18:40:05.012Z,76314.41
2022-10-24T18:42:34.214Z,76326.34
2022-10-24T18:45:01.472Z,76334.28
2022-10-24T18:47:29.091Z,76336.28
2022-10-24T18:49:56.121Z,76318.41
2022-10-24T18:52:40.076Z,76342.25
2022-10-24T18:55:14.204Z,76336.28
2022-10-24T18:57:40.807Z,76348.19
2022-10-24T19:00:08.376Z,76360.13
2022-10-24T19:02:50.256Z,76348.19
2022-10-24T19:05:16.763Z,76350.19
2022-10-24T19:07:45.883Z,76372.03
2022-10-24T19:10:25.943Z,76372.03
2022-10-24T19:12:54.253Z,76372.03
2022-10-24T19:15:22.091Z,76378.00
2022-10-24T19:17:50.922Z,76362.09
2022-10-24T19:20:21.377Z,76362.09
2022-10-24T19:22:50.548Z,76346.22
2022-10-24T19:25:17.628Z,76356.16
2022-10-24T19:27:44.917Z,76352.19
2022-10-24T19:30:12.207Z,76362.09
2022-10-24T19:32:38.909Z,76352.19
2022-10-24T19:35:05.772Z,76336.28
2022-10-24T19:37:32.303Z,76350.19
2022-10-24T19:39:58.852Z,76368.06
2022-10-24T19:42:25.526Z,76378.00
2022-10-24T19:44:54.678Z,76362.09
2022-10-24T19:47:21.528Z,76372.03
2022-10-24T19:49:49.243Z,76366.09
2022-10-24T19:52:15.759Z,76352.19
2022-10-24T19:54:42.320Z,76346.22
2022-10-24T19:57:12.017Z,76340.25
2022-10-24T19:59:38.596Z,76342.25
2022-10-24T20:02:05.487Z,76360.13
2022-10-24T20:04:32.208Z,76364.09
2022-10-24T20:06:58.661Z,76372.03
2022-10-24T20:09:26.150Z,76352.19
2022-10-24T20:11:52.718Z,76348.19
2022-10-24T20:14:19.510Z,76346.22
2022-10-24T20:16:46.084Z,76350.19
2022-10-24T20:19:13.636Z,76356.16
2022-10-24T20:21:44.200Z,76358.13
2022-10-24T20:24:13.050Z,76376.03
2022-10-24T20:26:39.591Z,76370.06
2022-10-24T20:29:06.459Z,76383.97
2022-10-24T20:31:39.206Z,76385.97
2022-10-24T20:34:10.688Z,76374.03
2022-10-24T20:36:39.238Z,76368.06
2022-10-24T20:39:07.359Z,76380.00
2022-10-24T20:41:34.310Z,76387.94
2022-10-24T20:44:01.557Z,76362.09
2022-10-24T20:46:28.044Z,76358.13
2022-10-24T20:48:54.598Z,76356.16
2022-10-24T20:51:21.591Z,76372.03
2022-10-24T20:53:48.856Z,76372.03
2022-10-24T20:56:17.571Z,76370.06
2022-10-24T20:58:44.874Z,76372.03
2022-10-24T21:01:17.101Z,76381.97
2022-10-24T21:03:44.322Z,76381.97
2022-10-24T21:06:17.498Z,76385.97
2022-10-24T21:08:44.875Z,76405.81
2022-10-24T21:11:15.730Z,76419.72
2022-10-24T21:13:45.843Z,76419.72
2022-10-24T21:16:12.669Z,76413.78
2022-10-24T21:18:39.411Z,76417.75
2022-10-24T21:21:10.570Z,76437.63
2022-10-24T21:23:37.318Z,76423.72
2022-10-24T21:26:06.729Z,76437.63
2022-10-24T21:28:34.016Z,76439.59
2022-10-24T21:31:11.792Z,76447.56
2022-10-24T21:33:39.454Z,76467.44
2022-10-24T21:36:08.080Z,76469.41
2022-10-24T21:38:34.585Z,76479.34
2022-10-24T21:41:03.593Z,76467.44
2022-10-24T21:43:39.109Z,76441.59
2022-10-24T21:46:14.471Z,76479.34
2022-10-24T21:48:43.223Z,76493.25
2022-10-24T21:51:20.131Z,76475.38
2022-10-24T21:53:48.084Z,76489.28
2022-10-24T21:56:17.277Z,76493.25
2022-10-24T21:58:51.500Z,76507.16
2022-10-24T22:01:19.994Z,76511.16
2022-10-24T22:03:46.684Z,76519.09
2022-10-24T22:06:15.684Z,76509.16
2022-10-24T22:08:43.543Z,76507.16
2022-10-24T22:11:13.101Z,76505.19
2022-10-24T22:13:40.591Z,76517.09
2022-10-24T22:16:08.561Z,76511.16
2022-10-24T22:18:36.062Z,76527.03
2022-10-24T22:21:09.884Z,76509.16
2022-10-24T22:23:37.066Z,76509.16
2022-10-24T22:26:04.666Z,76517.09
2022-10-24T22:28:31.124Z,76515.13
2022-10-24T22:30:57.891Z,76519.09
2022-10-24T22:33:36.150Z,76507.16
2022-10-24T22:36:20.240Z,76521.09
2022-10-24T22:38:47.075Z,76536.97
2022-10-24T22:41:13.759Z,76535.00
2022-10-24T22:43:40.569Z,76538.97
2022-10-24T22:46:28.783Z,76542.94
2022-10-24T22:48:59.686Z,76538.97
2022-10-24T22:51:26.482Z,76548.91
2022-10-24T22:53:53.254Z,76552.88
2022-10-24T22:56:26.968Z,76548.91
2022-10-24T22:58:53.947Z,76550.88
2022-10-24T23:01:38.513Z,76554.84
2022-10-24T23:04:16.239Z,76556.84
2022-10-24T23:06:55.312Z,76556.84
2022-10-24T23:09:21.960Z,76564.78
2022-10-24T23:11:48.685Z,76562.81
2022-10-24T23:16:58.216Z,76572.75
2022-10-24T23:19:29.275Z,76572.75
2022-10-24T23:22:19.875Z,76570.75
2022-10-24T23:24:46.846Z,76582.69
2022-10-24T23:27:13.309Z,76582.69
2022-10-24T23:29:46.728Z,76598.56
2022-10-24T23:32:22.117Z,76580.69
2022-10-24T23:34:49.922Z,76596.59
2022-10-24T23:37:34.677Z,76598.56
2022-10-24T23:40:09.715Z,76616.47
2022-10-24T23:42:36.449Z,76600.56
2022-10-24T23:45:04.307Z,76616.47
2022-10-24T23:47:52.194Z,76618.44
2022-10-24T23:50:31.819Z,76616.47
2022-10-24T23:53:48.787Z,76596.59
2022-10-24T23:56:16.820Z,76590.63
2022-10-24T23:58:43.485Z,76600.56
